sim
Sign-in with your pilot id or email,
or register
Callsign
Passwort

LiveFlight Tracker

Flight Info OEC0687

Flight: OEC0687 PIC: Frank Herter
Departure: EDDF Arrival: LEPA
Registration: D-AISN
Current Alt: 20914 FT GS: 400 KT
Last Info: 2020-10-24 17:09:47
Distance: 64 NM Status: Descending

ACARS Info OEC0687

Pilot Flight Time ALT GS Latitude Longitude
OEO0687 OEC0687 2020-10-24 17:09:47 20914 400 40.49653676177 3.4208931264321
OEO0687 OEC0687 2020-10-24 17:09:32 21385 402 40.522532658511 3.4340270465975
OEO0687 OEC0687 2020-10-24 17:09:17 21854 406 40.548719838337 3.4472640599307
OEO0687 OEC0687 2020-10-24 17:09:02 22327 410 40.575129889089 3.4606234830604
OEO0687 OEC0687 2020-10-24 17:08:47 22809 412 40.601712873856 3.4741038218828
OEO0687 OEC0687 2020-10-24 17:08:32 23298 415 40.628485664725 3.4876939239795
OEO0687 OEC0687 2020-10-24 17:08:17 23792 417 40.655416203788 3.501382797015
OEO0687 OEC0687 2020-10-24 17:08:02 24289 419 40.682525581709 3.5151615297267
OEO0687 OEC0687 2020-10-24 17:07:47 24783 423 40.709801111242 3.5290283612066
OEO0687 OEC0687 2020-10-24 17:07:32 25254 425 40.737339395435 3.5430453501265
OEO0687 OEC0687 2020-10-24 17:07:17 25698 429 40.765026218713 3.5571417399955
OEO0687 OEC0687 2020-10-24 17:07:02 26133 433 40.792965553031 3.5713644616837
OEO0687 OEC0687 2020-10-24 17:06:47 26544 439 40.821272369024 3.5857841916408
OEO0687 OEC0687 2020-10-24 17:06:32 26989 443 40.849846241917 3.6003214221959
OEO0687 OEC0687 2020-10-24 17:06:17 27439 447 40.878641188174 3.6149674555301
OEO0687 OEC0687 2020-10-24 17:06:02 27896 450 40.907665322699 3.6297979039719
OEO0687 OEC0687 2020-10-24 17:05:47 28350 452 40.936873082528 3.6447787499776
OEO0687 OEC0687 2020-10-24 17:05:32 28808 456 40.966290034415 3.6598870483804
OEO0687 OEC0687 2020-10-24 17:05:17 29265 460 40.995950610866 3.6751642072021
OEO0687 OEC0687 2020-10-24 17:05:02 29735 464 41.025831606253 3.6905969129101
OEO0687 OEC0687 2020-10-24 17:04:47 30207 468 41.055909122704 3.7061984256761
OEO0687 OEC0687 2020-10-24 17:04:32 30632 472 41.086271336201 3.7219605546094
OEO0687 OEC0687 2020-10-24 17:04:17 31184 476 41.117048662853 3.737531198122
OEO0687 OEC0687 2020-10-24 17:04:02 31892 478 41.148549088249 3.7509728503261
OEO0687 OEC0687 2020-10-24 17:03:47 32684 476 41.180538490419 3.7617778360671
OEO0687 OEC0687 2020-10-24 17:03:32 33427 476 41.213097508953 3.7700864143468
OEO0687 OEC0687 2020-10-24 17:03:17 34015 472 41.245279023113 3.777397171358
OEO0687 OEC0687 2020-10-24 17:03:02 34152 470 41.27748055139 3.7846834757583
OEO0687 OEC0687 2020-10-24 17:02:47 34147 470 41.309690564758 3.7919577339461
OEO0687 OEC0687 2020-10-24 17:02:32 34142 472 41.341936649748 3.7992547371974
OEO0687 OEC0687 2020-10-24 17:02:17 34139 472 41.374435562996 3.8066318084084
OEO0687 OEC0687 2020-10-24 17:02:02 34137 472 41.406746432021 3.8139847738542
OEO0687 OEC0687 2020-10-24 17:01:47 34137 472 41.438877666369 3.8213108721106
OEO0687 OEC0687 2020-10-24 17:01:32 34137 474 41.471234057969 3.828708233786
OEO0687 OEC0687 2020-10-24 17:01:17 34137 474 41.503642116109 3.8361478705971
OEO0687 OEC0687 2020-10-24 17:01:02 34137 474 41.536080169736 3.8436312099467
OEO0687 OEC0687 2020-10-24 17:00:47 34137 474 41.568530139496 3.8511622005379
OEO0687 OEC0687 2020-10-24 17:00:32 34137 476 41.601004544698 3.8587126811807
OEO0687 OEC0687 2020-10-24 17:00:17 34137 476 41.633536830649 3.8662236614521
OEO0687 OEC0687 2020-10-24 17:00:02 34137 476 41.666085156627 3.8737093219988
OEO0687 OEC0687 2020-10-24 16:59:47 34137 476 41.698634162026 3.88114646419
OEO0687 OEC0687 2020-10-24 16:59:32 34137 476 41.73127777317 3.8885442794326
OEO0687 OEC0687 2020-10-24 16:59:17 34137 476 41.763881631395 3.8958538424947
OEO0687 OEC0687 2020-10-24 16:59:02 34136 478 41.796543052765 3.9030860056397
OEO0687 OEC0687 2020-10-24 16:58:47 34135 478 41.829201364661 3.9103748913712
OEO0687 OEC0687 2020-10-24 16:58:32 34133 476 41.861678859811 3.9188298584808
OEO0687 OEC0687 2020-10-24 16:58:17 34130 476 41.893679931975 3.9298961056277
OEO0687 OEC0687 2020-10-24 16:58:02 34128 474 41.92512348039 3.9436514662858
OEO0687 OEC0687 2020-10-24 16:57:47 34124 472 41.955694100308 3.9598941630602
OEO0687 OEC0687 2020-10-24 16:57:32 34119 472 41.985436217775 3.9785372344359
OEO0687 OEC0687 2020-10-24 16:57:17 34115 470 42.014344814833 3.9990984750605
OEO0687 OEC0687 2020-10-24 16:57:02 34112 470 42.043068387907 4.0200829706352
OEO0687 OEC0687 2020-10-24 16:56:47 34110 470 42.07180131758 4.0410740629454
OEO0687 OEC0687 2020-10-24 16:56:32 34109 470 42.100546748336 4.0621134401573
OEO0687 OEC0687 2020-10-24 16:56:17 34108 470 42.129217401455 4.0831849139222
OEO0687 OEC0687 2020-10-24 16:56:02 34108 470 42.157892601219 4.1043275510546
OEO0687 OEC0687 2020-10-24 16:55:47 34108 470 42.186573524606 4.1254558741382
OEO0687 OEC0687 2020-10-24 16:55:32 34109 470 42.215226852125 4.1465352119588
OEO0687 OEC0687 2020-10-24 16:55:17 34109 470 42.243916764417 4.1676232075778
OEO0687 OEC0687 2020-10-24 16:55:02 34109 470 42.272611017284 4.1887343484667
OEO0687 OEC0687 2020-10-24 16:54:47 34109 470 42.301323195649 4.2098992103943
OEO0687 OEC0687 2020-10-24 16:54:32 34109 470 42.330007779455 4.2310849364154
OEO0687 OEC0687 2020-10-24 16:54:17 34109 470 42.358679667024 4.252309482457
OEO0687 OEC0687 2020-10-24 16:54:02 34109 470 42.387304856419 4.2735464615772
OEO0687 OEC0687 2020-10-24 16:53:47 34109 470 42.415910769506 4.2948373618393
OEO0687 OEC0687 2020-10-24 16:53:32 34109 470 42.44450471009 4.3162023269653
OEO0687 OEC0687 2020-10-24 16:53:17 34109 470 42.473096261901 4.3376208397071
OEO0687 OEC0687 2020-10-24 16:53:02 34109 470 42.501747290462 4.3589880270548
OEO0687 OEC0687 2020-10-24 16:52:47 34109 470 42.530353299469 4.380303019742
OEO0687 OEC0687 2020-10-24 16:52:32 34109 470 42.558950164654 4.4016340740459
OEO0687 OEC0687 2020-10-24 16:52:17 34109 470 42.58753911343 4.42298828696
OEO0687 OEC0687 2020-10-24 16:52:02 34109 470 42.616174478673 4.444402370751
OEO0687 OEC0687 2020-10-24 16:51:47 34109 470 42.644831491562 4.4658466567847
OEO0687 OEC0687 2020-10-24 16:51:32 34109 470 42.673457132362 4.4872933974177
OEO0687 OEC0687 2020-10-24 16:51:17 34109 470 42.702061221853 4.5087511303864
OEO0687 OEC0687 2020-10-24 16:51:02 34109 470 42.730678041849 4.5302409332277
OEO0687 OEC0687 2020-10-24 16:50:47 34109 470 42.759314019747 4.5517442897256
OEO0687 OEC0687 2020-10-24 16:50:32 34109 470 42.788015388735 4.5732990327248
OEO0687 OEC0687 2020-10-24 16:50:17 34109 470 42.816658032411 4.5948013753665
OEO0687 OEC0687 2020-10-24 16:50:02 34109 472 42.845312716833 4.616302890915
OEO0687 OEC0687 2020-10-24 16:49:47 34108 472 42.874012174652 4.6378290324971
OEO0687 OEC0687 2020-10-24 16:49:32 34109 472 42.902752036476 4.6594614422177
OEO0687 OEC0687 2020-10-24 16:49:17 34109 472 42.931430913635 4.6811278961625
OEO0687 OEC0687 2020-10-24 16:49:02 34108 472 42.960086873332 4.7028025676786
OEO0687 OEC0687 2020-10-24 16:48:47 34108 472 42.988757807874 4.7245381772887
OEO0687 OEC0687 2020-10-24 16:48:32 34107 472 43.017411402145 4.7463629262036
OEO0687 OEC0687 2020-10-24 16:48:17 34104 472 43.045915010144 4.7685731806001
OEO0687 OEC0687 2020-10-24 16:48:02 34101 470 43.073529668118 4.7925318700427
OEO0687 OEC0687 2020-10-24 16:47:47 34099 470 43.100506807358 4.8176593222462
OEO0687 OEC0687 2020-10-24 16:47:32 34097 470 43.127545141551 4.8428801826227
OEO0687 OEC0687 2020-10-24 16:47:17 34095 470 43.154509277643 4.8680328078085
OEO0687 OEC0687 2020-10-24 16:47:02 34092 470 43.181472523731 4.8932378000013
OEO0687 OEC0687 2020-10-24 16:46:47 34089 470 43.208421623868 4.9184860278252
OEO0687 OEC0687 2020-10-24 16:46:32 34088 470 43.235405394688 4.9438158644035
OEO0687 OEC0687 2020-10-24 16:46:17 34085 470 43.26234622531 4.9691871923799
OEO0687 OEC0687 2020-10-24 16:46:02 34084 470 43.289265314992 4.9946343307037
OEO0687 OEC0687 2020-10-24 16:45:47 34085 470 43.316158904765 5.0201251423843
OEO0687 OEC0687 2020-10-24 16:45:32 34084 472 43.343165095314 5.0453989834175
OEO0687 OEC0687 2020-10-24 16:45:17 34084 472 43.371129129108 5.068899813397
OEO0687 OEC0687 2020-10-24 16:45:02 34084 474 43.400155739544 5.0901482651006
OEO0687 OEC0687 2020-10-24 16:44:47 34083 476 43.430187219191 5.1091019933567
OEO0687 OEC0687 2020-10-24 16:44:32 34084 478 43.460997170364 5.1259613748378
OEO0687 OEC0687 2020-10-24 16:44:17 34084 480 43.491996938808 5.1424460630801
OEO0687 OEC0687 2020-10-24 16:44:02 34084 480 43.523048364076 5.1589418637199
OEO0687 OEC0687 2020-10-24 16:43:47 34084 480 43.554101584981 5.1754415463618
OEO0687 OEC0687 2020-10-24 16:43:32 34084 480 43.585154473972 5.1919857853159
OEO0687 OEC0687 2020-10-24 16:43:17 34084 480 43.616015685087 5.208458947614
OEO0687 OEC0687 2020-10-24 16:43:02 34084 480 43.647243122343 5.2251527570387
OEO0687 OEC0687 2020-10-24 16:42:47 34084 480 43.678103425376 5.2416678076062
OEO0687 OEC0687 2020-10-24 16:42:32 34084 480 43.709171507534 5.2583214629892
OEO0687 OEC0687 2020-10-24 16:42:17 34084 480 43.74026055552 5.2750246906044
OEO0687 OEC0687 2020-10-24 16:42:02 34084 480 43.771334208874 5.2917595612055
OEO0687 OEC0687 2020-10-24 16:41:47 34084 480 43.802400511414 5.3085378408603
OEO0687 OEC0687 2020-10-24 16:41:32 34084 480 43.833467636728 5.3253601165384
OEO0687 OEC0687 2020-10-24 16:41:17 34083 480 43.864531845377 5.3421919704895
OEO0687 OEC0687 2020-10-24 16:41:02 34083 480 43.895656657745 5.3590198834839
OEO0687 OEC0687 2020-10-24 16:40:47 34084 482 43.926666406868 5.3758931187765
OEO0687 OEC0687 2020-10-24 16:40:32 34084 482 43.957763431973 5.3928164065491
OEO0687 OEC0687 2020-10-24 16:40:17 34086 484 43.988911631522 5.4096621610024
OEO0687 OEC0687 2020-10-24 16:40:02 34084 484 44.020210160755 5.4265546062021
OEO0687 OEC0687 2020-10-24 16:39:47 34084 484 44.051438170465 5.4434531878998
OEO0687 OEC0687 2020-10-24 16:39:32 34084 484 44.082717190116 5.4604751932502
OEO0687 OEC0687 2020-10-24 16:39:17 34084 484 44.113953260097 5.4775179559724
OEO0687 OEC0687 2020-10-24 16:39:02 34084 484 44.145211574338 5.4945775273633
OEO0687 OEC0687 2020-10-24 16:38:47 34085 484 44.176490033069 5.5116341105464
OEO0687 OEC0687 2020-10-24 16:38:32 34086 484 44.207730546318 5.5286767665469
OEO0687 OEC0687 2020-10-24 16:38:17 34087 484 44.238951951067 5.5457486642948
OEO0687 OEC0687 2020-10-24 16:38:02 34090 484 44.270157789507 5.5629031913234
OEO0687 OEC0687 2020-10-24 16:37:47 34094 484 44.301347464733 5.5801464307699
OEO0687 OEC0687 2020-10-24 16:37:32 34099 484 44.332506429183 5.5973617624904
OEO0687 OEC0687 2020-10-24 16:37:17 34103 484 44.364000931116 5.6135144661863
OEO0687 OEC0687 2020-10-24 16:37:02 34106 484 44.396154782299 5.6270150821328
OEO0687 OEC0687 2020-10-24 16:36:47 34108 485 44.42891632116 5.6379528830367
OEO0687 OEC0687 2020-10-24 16:36:32 34109 485 44.461847339078 5.6478792289739
OEO0687 OEC0687 2020-10-24 16:36:17 34109 485 44.494760760461 5.6577923147393
OEO0687 OEC0687 2020-10-24 16:36:02 34109 485 44.527696155685 5.6677308002706
OEO0687 OEC0687 2020-10-24 16:35:47 34110 485 44.560681733184 5.6777345194446
OEO0687 OEC0687 2020-10-24 16:35:32 34109 487 44.593670250595 5.6877685742635
OEO0687 OEC0687 2020-10-24 16:35:17 34109 487 44.626699484207 5.6977992673486
OEO0687 OEC0687 2020-10-24 16:35:02 34109 487 44.659714623591 5.7078128315999
OEO0687 OEC0687 2020-10-24 16:34:47 34109 485 44.692732508252 5.7178196990642
OEO0687 OEC0687 2020-10-24 16:34:32 34109 487 44.725747182937 5.7278432684755
OEO0687 OEC0687 2020-10-24 16:34:17 34108 487 44.758828395004 5.7379074454958
OEO0687 OEC0687 2020-10-24 16:34:02 34108 487 44.791895937057 5.7479708754641
OEO0687 OEC0687 2020-10-24 16:33:47 34106 487 44.824951238806 5.7580263013046
OEO0687 OEC0687 2020-10-24 16:33:32 34105 487 44.858024846527 5.7680770847508
OEO0687 OEC0687 2020-10-24 16:33:17 34103 487 44.891227697594 5.7781917411379
OEO0687 OEC0687 2020-10-24 16:33:02 34103 487 44.924420483938 5.7883682961144
OEO0687 OEC0687 2020-10-24 16:32:47 34102 487 44.957551592159 5.7985433703273
OEO0687 OEC0687 2020-10-24 16:32:32 34101 489 44.990705433667 5.8087424302435
OEO0687 OEC0687 2020-10-24 16:32:17 34100 489 45.023873466729 5.8189608334689
OEO0687 OEC0687 2020-10-24 16:32:02 34099 489 45.05706030956 5.8291846261404
OEO0687 OEC0687 2020-10-24 16:31:47 34098 489 45.09023239946 5.8394191310031
OEO0687 OEC0687 2020-10-24 16:31:32 34098 489 45.123471767396 5.8497002465708
OEO0687 OEC0687 2020-10-24 16:31:17 34096 489 45.156721058951 5.8599946890116
OEO0687 OEC0687 2020-10-24 16:31:02 34095 489 45.189971242191 5.8702969354771
OEO0687 OEC0687 2020-10-24 16:30:47 34095 491 45.223245954725 5.8806125755166
OEO0687 OEC0687 2020-10-24 16:30:32 34096 491 45.256345608997 5.8909091323812
OEO0687 OEC0687 2020-10-24 16:30:17 34098 491 45.28985176146 5.9013527117356
OEO0687 OEC0687 2020-10-24 16:30:02 34101 491 45.322961836438 5.9117044437221
OEO0687 OEC0687 2020-10-24 16:29:47 34108 491 45.356284133975 5.9221622370737
OEO0687 OEC0687 2020-10-24 16:29:32 34116 491 45.389608603238 5.9326856309239
OEO0687 OEC0687 2020-10-24 16:29:17 34125 491 45.422973387162 5.9432623456063
OEO0687 OEC0687 2020-10-24 16:29:02 34128 491 45.456304016743 5.9537606465154
OEO0687 OEC0687 2020-10-24 16:28:47 34131 493 45.489874704471 5.962974835175
OEO0687 OEC0687 2020-10-24 16:28:32 34135 493 45.523725848709 5.970405707466
OEO0687 OEC0687 2020-10-24 16:28:17 34136 493 45.557673667575 5.9777997540984
OEO0687 OEC0687 2020-10-24 16:28:02 34137 493 45.591564278583 5.9851713558221
OEO0687 OEC0687 2020-10-24 16:27:47 34137 493 45.625502620398 5.9925630679171
OEO0687 OEC0687 2020-10-24 16:27:32 34137 493 45.65935379359 5.9999416660746
OEO0687 OEC0687 2020-10-24 16:27:17 34137 495 45.69327237226 6.0073706829165
OEO0687 OEC0687 2020-10-24 16:27:02 34137 495 45.727208559341 6.0148119188856
OEO0687 OEC0687 2020-10-24 16:26:47 34137 495 45.761151783441 6.0222622595503
OEO0687 OEC0687 2020-10-24 16:26:32 34136 495 45.795059098622 6.0297092118008
OEO0687 OEC0687 2020-10-24 16:26:17 34136 495 45.82900940646 6.0371683553387
OEO0687 OEC0687 2020-10-24 16:26:02 34136 495 45.862987300722 6.0446306805174
OEO0687 OEC0687 2020-10-24 16:25:47 34136 495 45.897081592399 6.0521409570926
OEO0687 OEC0687 2020-10-24 16:25:32 34137 495 45.931000646923 6.0596401512856
OEO0687 OEC0687 2020-10-24 16:25:17 34137 495 45.964968187938 6.0671308544329
OEO0687 OEC0687 2020-10-24 16:25:02 34137 495 45.998961510779 6.0745752003393
OEO0687 OEC0687 2020-10-24 16:24:47 34137 495 46.032965607574 6.0819226896275
OEO0687 OEC0687 2020-10-24 16:24:32 34137 495 46.066980928147 6.0891266115411
OEO0687 OEC0687 2020-10-24 16:24:17 34137 495 46.101026387995 6.0962040282126
OEO0687 OEC0687 2020-10-24 16:24:02 34137 495 46.135064238103 6.1033725985612
OEO0687 OEC0687 2020-10-24 16:23:47 34137 495 46.168982975854 6.111443187437
OEO0687 OEC0687 2020-10-24 16:23:32 34137 493 46.202292424046 6.1231037944438
OEO0687 OEC0687 2020-10-24 16:23:17 34137 491 46.234555501027 6.1391452274213
OEO0687 OEC0687 2020-10-24 16:23:02 34137 489 46.26554899005 6.1594481781726
OEO0687 OEC0687 2020-10-24 16:22:47 34136 485 46.29494556376 6.1837283400734
OEO0687 OEC0687 2020-10-24 16:22:32 34136 482 46.322510063022 6.2114764638243
OEO0687 OEC0687 2020-10-24 16:22:17 34136 482 46.348643973214 6.2415430232517
OEO0687 OEC0687 2020-10-24 16:22:02 34136 480 46.374640505008 6.2718098859807
OEO0687 OEC0687 2020-10-24 16:21:47 34137 480 46.400598243429 6.3021153552868
OEO0687 OEC0687 2020-10-24 16:21:32 34136 480 46.426582532916 6.3325378182628
OEO0687 OEC0687 2020-10-24 16:21:17 34136 480 46.452518017524 6.3628566355285
OEO0687 OEC0687 2020-10-24 16:21:02 34137 478 46.478400790616 6.393132729685
OEO0687 OEC0687 2020-10-24 16:20:47 34136 478 46.504326920885 6.4234827819837
OEO0687 OEC0687 2020-10-24 16:20:32 34135 478 46.530139247567 6.4537527396422
OEO0687 OEC0687 2020-10-24 16:20:17 34131 478 46.55595894926 6.484061383919
OEO0687 OEC0687 2020-10-24 16:20:02 34120 478 46.581750907321 6.5144024715944
OEO0687 OEC0687 2020-10-24 16:19:47 34057 478 46.607517246206 6.5447701863353
OEO0687 OEC0687 2020-10-24 16:19:32 33870 478 46.633291189251 6.5751685835667
OEO0687 OEC0687 2020-10-24 16:19:17 33682 478 46.659021757249 6.6055376590094
OEO0687 OEC0687 2020-10-24 16:19:02 33470 478 46.684766314014 6.6359535586005
OEO0687 OEC0687 2020-10-24 16:18:47 33258 478 46.710527227124 6.6664256738502
OEO0687 OEC0687 2020-10-24 16:18:32 33064 478 46.736311068345 6.696924202722
OEO0687 OEC0687 2020-10-24 16:18:17 32840 478 46.762092245096 6.7274009870463
OEO0687 OEC0687 2020-10-24 16:18:02 32591 480 46.787936316357 6.7579334000597
OEO0687 OEC0687 2020-10-24 16:17:47 32350 480 46.813892962074 6.7885408651127
OEO0687 OEC0687 2020-10-24 16:17:32 32197 478 46.839820226156 6.819100051934
OEO0687 OEC0687 2020-10-24 16:17:17 32136 474 46.865515357875 6.8495376026912
OEO0687 OEC0687 2020-10-24 16:17:02 32136 472 46.890472303063 6.8809432660622
OEO0687 OEC0687 2020-10-24 16:16:47 32139 470 46.913783721702 6.9143031506084
OEO0687 OEC0687 2020-10-24 16:16:32 32139 468 46.935639984167 6.949549828222
OEO0687 OEC0687 2020-10-24 16:16:17 32138 466 46.956227846897 6.9862614746909
OEO0687 OEC0687 2020-10-24 16:16:02 32138 466 46.976529362502 7.0232498405378
OEO0687 OEC0687 2020-10-24 16:15:47 32138 466 46.996823392793 7.0602551351152
OEO0687 OEC0687 2020-10-24 16:15:32 32138 466 47.017120700266 7.0973692891675
OEO0687 OEC0687 2020-10-24 16:15:17 32138 466 47.037358367496 7.1345152396181
OEO0687 OEC0687 2020-10-24 16:15:02 32138 466 47.057564719227 7.1716684804952
OEO0687 OEC0687 2020-10-24 16:14:47 32138 466 47.077814695495 7.2088595008562
OEO0687 OEC0687 2020-10-24 16:14:32 32139 468 47.098065294963 7.2460792026756
OEO0687 OEC0687 2020-10-24 16:14:17 32138 468 47.118318833215 7.2833929796786
OEO0687 OEC0687 2020-10-24 16:14:02 32138 466 47.138361661362 7.3204946739718
OEO0687 OEC0687 2020-10-24 16:13:47 32138 466 47.158515030947 7.3578769473759
OEO0687 OEC0687 2020-10-24 16:13:32 32138 466 47.178636119103 7.395286266986
OEO0687 OEC0687 2020-10-24 16:13:17 32138 466 47.198665664945 7.4328070574178
OEO0687 OEC0687 2020-10-24 16:13:02 32138 466 47.21857458892 7.4703900666041
OEO0687 OEC0687 2020-10-24 16:12:47 32139 466 47.238589930813 7.5078799077413
OEO0687 OEC0687 2020-10-24 16:12:32 32136 468 47.259546373283 7.5443928183837
OEO0687 OEC0687 2020-10-24 16:12:17 32135 472 47.282712262446 7.578186219839
OEO0687 OEC0687 2020-10-24 16:12:02 32132 474 47.308076568061 7.6088410426489
OEO0687 OEC0687 2020-10-24 16:11:47 32128 476 47.335427925993 7.635976423726
OEO0687 OEC0687 2020-10-24 16:11:32 32123 478 47.364524426334 7.6592925551183
OEO0687 OEC0687 2020-10-24 16:11:17 32119 480 47.395072343913 7.6786814878204
OEO0687 OEC0687 2020-10-24 16:11:02 32115 480 47.426332886946 7.6958606408826
OEO0687 OEC0687 2020-10-24 16:10:47 32112 480 47.45760324854 7.713025599958
OEO0687 OEC0687 2020-10-24 16:10:32 32110 480 47.488885621473 7.7302061137219
OEO0687 OEC0687 2020-10-24 16:10:17 32110 480 47.520136068418 7.7473941780465
OEO0687 OEC0687 2020-10-24 16:10:02 32110 482 47.551417508457 7.7646232235062
OEO0687 OEC0687 2020-10-24 16:09:47 32110 482 47.582730662011 7.7819081377788
OEO0687 OEC0687 2020-10-24 16:09:32 32110 482 47.61401022812 7.7992009227772
OEO0687 OEC0687 2020-10-24 16:09:17 32110 482 47.645293237716 7.8165203748619
OEO0687 OEC0687 2020-10-24 16:09:02 32110 482 47.676581792186 7.8338660804862
OEO0687 OEC0687 2020-10-24 16:08:47 32110 482 47.707921876907 7.8512611448994
OEO0687 OEC0687 2020-10-24 16:08:32 32109 482 47.739178513237 7.8686269675652
OEO0687 OEC0687 2020-10-24 16:08:17 32108 482 47.770451667206 7.8860132941388
OEO0687 OEC0687 2020-10-24 16:08:02 32106 482 47.801728653177 7.9034036894773
OEO0687 OEC0687 2020-10-24 16:07:47 32103 482 47.832980713712 7.920774441352
OEO0687 OEC0687 2020-10-24 16:07:32 32100 482 47.864275491637 7.9381682918058
OEO0687 OEC0687 2020-10-24 16:07:17 32097 482 47.895598093385 7.9556301506666
OEO0687 OEC0687 2020-10-24 16:07:02 32094 482 47.926899010187 7.9731778337892
OEO0687 OEC0687 2020-10-24 16:06:47 32086 482 47.958137526052 7.9907195354936
OEO0687 OEC0687 2020-10-24 16:06:32 32071 482 47.989415445653 8.0083146914325
OEO0687 OEC0687 2020-10-24 16:06:17 31845 480 48.020705318574 8.0259393592581
OEO0687 OEC0687 2020-10-24 16:06:01 31604 480 48.051930034157 8.0435643305735
OEO0687 OEC0687 2020-10-24 16:05:46 31356 480 48.083122117249 8.0612143631469
OEO0687 OEC0687 2020-10-24 16:05:31 31113 480 48.11433567383 8.0789283920583
OEO0687 OEC0687 2020-10-24 16:05:17 30891 480 48.14545428559 8.096653766821
OEO0687 OEC0687 2020-10-24 16:05:01 30653 480 48.176521358813 8.1144099241257
OEO0687 OEC0687 2020-10-24 16:04:46 30386 480 48.207602426298 8.1321942159401
OEO0687 OEC0687 2020-10-24 16:04:31 30116 480 48.238978570888 8.148877833442
OEO0687 OEC0687 2020-10-24 16:04:17 29847 480 48.270949572607 8.1628576298474
OEO0687 OEC0687 2020-10-24 16:04:02 29575 480 48.303331543035 8.1747779374551
OEO0687 OEC0687 2020-10-24 16:03:46 29277 480 48.335702680175 8.1865144169246
OEO0687 OEC0687 2020-10-24 16:03:31 28979 480 48.368090764161 8.1982681452897
OEO0687 OEC0687 2020-10-24 16:03:16 28684 480 48.400468698192 8.2100675238646
OEO0687 OEC0687 2020-10-24 16:03:02 28367 480 48.43277475109 8.2219077101516
OEO0687 OEC0687 2020-10-24 16:02:47 28047 480 48.465158908716 8.2337970818049
OEO0687 OEC0687 2020-10-24 16:02:31 27730 480 48.497517262097 8.24558083899
OEO0687 OEC0687 2020-10-24 16:02:16 27390 478 48.529813529938 8.25724728234
OEO0687 OEC0687 2020-10-24 16:02:01 27039 478 48.562162114391 8.2689222100657
OEO0687 OEC0687 2020-10-24 16:01:46 26662 480 48.594493825849 8.2806005795664
OEO0687 OEC0687 2020-10-24 16:01:31 26295 480 48.626820830422 8.2923326300851
OEO0687 OEC0687 2020-10-24 16:01:16 26019 476 48.658834162883 8.3040305029775
OEO0687 OEC0687 2020-10-24 16:01:01 25746 474 48.691100064272 8.3159269849643
OEO0687 OEC0687 2020-10-24 16:00:46 25462 472 48.722954267901 8.3277757623487
OEO0687 OEC0687 2020-10-24 16:00:32 25157 468 48.754446197936 8.3395092536104
OEO0687 OEC0687 2020-10-24 16:00:16 24855 466 48.786059862674 8.3509472935761
OEO0687 OEC0687 2020-10-24 16:00:01 24560 462 48.817503515139 8.3617856298501
OEO0687 OEC0687 2020-10-24 15:59:46 24241 460 48.848806569469 8.3725327190657
OEO0687 OEC0687 2020-10-24 15:59:31 23914 456 48.879945370434 8.3832168424749
OEO0687 OEC0687 2020-10-24 15:59:16 23581 454 48.910845783292 8.3938793013778
OEO0687 OEC0687 2020-10-24 15:59:01 23228 450 48.941479283455 8.4044972039686
OEO0687 OEC0687 2020-10-24 15:58:46 22837 449 48.971962654492 8.4151077961225
OEO0687 OEC0687 2020-10-24 15:58:31 22441 447 49.002256623146 8.425711291283
OEO0687 OEC0687 2020-10-24 15:58:16 22041 443 49.032356769482 8.4362223654463
OEO0687 OEC0687 2020-10-24 15:58:01 21636 441 49.06256209334 8.4447948931849
OEO0687 OEC0687 2020-10-24 15:57:46 21207 439 49.092859127128 8.4507375312887
OEO0687 OEC0687 2020-10-24 15:57:31 20775 435 49.123066679933 8.4547664891254
OEO0687 OEC0687 2020-10-24 15:57:16 20342 433 49.153083151041 8.4586476907604
OEO0687 OEC0687 2020-10-24 15:57:01 19889 429 49.182845447077 8.4624860436305
OEO0687 OEC0687 2020-10-24 15:56:46 19413 425 49.212559909739 8.4663487290496
OEO0687 OEC0687 2020-10-24 15:56:31 18939 423 49.241942439088 8.4701904436535
OEO0687 OEC0687 2020-10-24 15:56:16 18447 419 49.271076283526 8.4740150827844
OEO0687 OEC0687 2020-10-24 15:56:01 17946 417 49.299980164953 8.4777753153659
OEO0687 OEC0687 2020-10-24 15:55:46 17440 414 49.3287064056 8.4815241287249
OEO0687 OEC0687 2020-10-24 15:55:31 16928 410 49.357169787939 8.4852237433775
OEO0687 OEC0687 2020-10-24 15:55:16 16399 406 49.385430144117 8.4888904877448
OEO0687 OEC0687 2020-10-24 15:55:01 15854 404 49.413402070052 8.492529644551
OEO0687 OEC0687 2020-10-24 15:54:46 15302 400 49.44116140953 8.4961472969336
OEO0687 OEC0687 2020-10-24 15:54:31 14731 396 49.468690756715 8.4997422175929
OEO0687 OEC0687 2020-10-24 15:54:16 14165 392 49.495977674247 8.5032956235086
OEO0687 OEC0687 2020-10-24 15:54:01 13578 388 49.523012789518 8.5068148784784
OEO0687 OEC0687 2020-10-24 15:53:46 12945 386 49.549825661137 8.5103148168195
OEO0687 OEC0687 2020-10-24 15:53:31 12395 380 49.57638737811 8.5137770290376
OEO0687 OEC0687 2020-10-24 15:53:16 12098 367 49.60232875039 8.5171776628315
OEO0687 OEC0687 2020-10-24 15:53:01 11836 353 49.627291080158 8.520472161889
OEO0687 OEC0687 2020-10-24 15:52:46 11565 338 49.651223151703 8.5236335256185
OEO0687 OEC0687 2020-10-24 15:52:31 11290 322 49.674128191953 8.5266837386914
OEO0687 OEC0687 2020-10-24 15:52:16 11010 307 49.695975208553 8.5296126091849
OEO0687 OEC0687 2020-10-24 15:52:01 10725 293 49.716753175382 8.5324021011306
OEO0687 OEC0687 2020-10-24 15:51:46 10434 277 49.736492922493 8.535100666183
OEO0687 OEC0687 2020-10-24 15:51:31 10142 262 49.755153021523 8.5376715920753
OEO0687 OEC0687 2020-10-24 15:51:16 9827 248 49.772783360472 8.5399609861077
OEO0687 OEC0687 2020-10-24 15:51:01 9269 246 49.78987202153 8.540478853185
OEO0687 OEC0687 2020-10-24 15:50:46 8690 242 49.806867959778 8.5393310612393
OEO0687 OEC0687 2020-10-24 15:50:31 8097 241 49.823612507457 8.5381348710001
OEO0687 OEC0687 2020-10-24 15:50:16 7494 237 49.840130999625 8.5369589578849
OEO0687 OEC0687 2020-10-24 15:50:01 6881 233 49.856438606019 8.5358024681202
OEO0687 OEC0687 2020-10-24 15:49:46 6250 231 49.872531950682 8.5346608660335
OEO0687 OEC0687 2020-10-24 15:49:31 5606 229 49.888462781073 8.5335115799839
OEO0687 OEC0687 2020-10-24 15:49:16 4955 225 49.904157626081 8.5323777152208
OEO0687 OEC0687 2020-10-24 15:49:01 4246 225 49.919692236468 8.5312457180876
OEO0687 OEC0687 2020-10-24 15:48:46 3516 225 49.935254070775 8.5301549688937
OEO0687 OEC0687 2020-10-24 15:48:31 3139 209 49.950375677387 8.5292179523169
OEO0687 OEC0687 2020-10-24 15:48:16 2821 194 49.964374197355 8.528465244126
OEO0687 OEC0687 2020-10-24 15:48:01 2507 178 49.977294723379 8.5278689899558
OEO0687 OEC0687 2020-10-24 15:47:46 2034 173 49.989363987123 8.5266397693486
OEO0687 OEC0687 2020-10-24 15:47:31 1306 173 50.001189338549 8.5264891850218
OEO0687 OEC0687 2020-10-24 15:47:16 465 178 50.013223874313 8.5262626148404
OEO0687 OEC0687 2020-10-24 15:47:01 371 134 50.024412693607 8.5259764939472
OEO0687 OEC0687 2020-10-24 15:46:46 371 64 50.031436280159 8.5259120873978
OEO0687 OEC0687 2020-10-24 15:46:31 371 9 50.033700702405 8.5259753200085
OEO0687 OEC0687 2020-10-24 15:46:16 371 7 50.034179842729 8.526629470704
OEO0687 OEC0687 2020-10-24 15:46:01 371 1 50.034327029779 8.5272241774095
OEO0687 OEC0687 2020-10-24 15:45:46 371 0 50.03435310163 8.5273298852591
OEO0687 OEC0687 2020-10-24 15:45:31 371 0 50.034353163096 8.527330258785
OEO0687 OEC0687 2020-10-24 15:45:16 371 13 50.034471700097 8.5278155223812
OEO0687 OEC0687 2020-10-24 15:45:01 371 19 50.034855941849 8.5292164048522
OEO0687 OEC0687 2020-10-24 15:44:46 371 19 50.035345962765 8.531206764665
OEO0687 OEC0687 2020-10-24 15:44:31 371 19 50.035819416282 8.5331990454685
OEO0687 OEC0687 2020-10-24 15:44:16 371 19 50.03628792573 8.5351729167778
OEO0687 OEC0687 2020-10-24 15:44:01 371 17 50.036786269097 8.5371179198657
OEO0687 OEC0687 2020-10-24 15:43:46 371 17 50.037251924622 8.5390632964795
OEO0687 OEC0687 2020-10-24 15:43:31 371 17 50.037712484496 8.5409900501557
OEO0687 OEC0687 2020-10-24 15:43:16 371 17 50.038233594206 8.5428477548882
OEO0687 OEC0687 2020-10-24 15:43:01 371 17 50.038863401913 8.5446070088472
OEO0687 OEC0687 2020-10-24 15:42:46 371 17 50.039315208624 8.5464822159395
OEO0687 OEC0687 2020-10-24 15:42:31 371 17 50.039755038268 8.5483429622406
OEO0687 OEC0687 2020-10-24 15:42:16 371 17 50.040182238246 8.5501381280536
OEO0687 OEC0687 2020-10-24 15:42:01 371 15 50.040606207045 8.5519004235811
OEO0687 OEC0687 2020-10-24 15:41:46 371 15 50.041009637791 8.5536115994116
OEO0687 OEC0687 2020-10-24 15:41:31 371 15 50.041409299135 8.5552545533917
OEO0687 OEC0687 2020-10-24 15:41:16 371 13 50.041783577285 8.5568311798317
OEO0687 OEC0687 2020-10-24 15:41:01 371 13 50.042146442711 8.5583145048203
OEO0687 OEC0687 2020-10-24 15:40:46 371 11 50.042730168509 8.5594720351216
OEO0687 OEC0687 2020-10-24 15:40:31 371 11 50.043491506341 8.5601910192535
OEO0687 OEC0687 2020-10-24 15:40:16 371 9 50.044280759481 8.560491360814
OEO0687 OEC0687 2020-10-24 15:40:01 371 13 50.044644533307 8.5616254923813
OEO0687 OEC0687 2020-10-24 15:39:46 371 11 50.044968613368 8.5629802443949
OEO0687 OEC0687 2020-10-24 15:39:31 371 9 50.045350865813 8.564144951731
OEO0687 OEC0687 2020-10-24 15:39:16 371 9 50.046001856959 8.5647425932834
OEO0687 OEC0687 2020-10-24 15:39:01 371 7 50.046605416804 8.5651951199963
OEO0687 OEC0687 2020-10-24 15:38:46 371 5 50.047083884878 8.5656390022511
OEO0687 OEC0687 2020-10-24 15:38:31 371 3 50.047363171525 8.5661691956854
OEO0687 OEC0687 2020-10-24 15:38:16 371 1 50.047568806982 8.5664978184979
OEO0687 OEC0687 2020-10-24 15:38:01 371 0 50.047660161668 8.5665770860449
OEO0687 OEC0687 2020-10-24 15:37:46 371 0 50.047664077545 8.5665802876961
OEO0687 OEC0687 2020-10-24 15:37:31 371 0 50.047664077359 8.5665802876961
OEO0687 OEC0687 2020-10-24 15:37:16 371 0 50.047664077565 8.5665802876961
OEO0687 OEC0687 2020-10-24 15:37:01 371 0 50.047664077356 8.5665802876961
OEO0687 OEC0687 2020-10-24 15:36:46 371 0 50.047664077599 8.5665802876961
OEO0687 OEC0687 2020-10-24 15:36:31 371 0 50.047664079735 8.5665802876961
OEO0687 OEC0687 2020-10-24 15:36:16 371 0 50.047664079298 8.5665802876961
OEO0687 OEC0687 2020-10-24 15:36:01 371 0 50.04766407943 8.5665802876961
OEO0687 OEC0687 2020-10-24 15:35:46 371 0 50.047664079617 8.5665802876961
OEO0687 OEC0687 2020-10-24 15:35:31 371 0 50.047664079471 8.5665802876961
OEO0687 OEC0687 2020-10-24 15:35:16 371 0 50.047664079527 8.5665802876961
OEO0687 OEC0687 2020-10-24 15:35:01 371 0 50.047664079398 8.5665802876961
OEO0687 OEC0687 2020-10-24 15:34:46 371 0 50.047664079578 8.5665802876961
OEO0687 OEC0687 2020-10-24 15:34:31 371 0 50.047664079702 8.5665802876961
OEO0687 OEC0687 2020-10-24 15:34:16 371 0 50.047664079797 8.5665802876961
OEO0687 OEC0687 2020-10-24 15:34:01 371 0 50.047664079447 8.5665802876961
OEO0687 OEC0687 2020-10-24 15:33:46 371 0 50.047664079578 8.5665802876961
OEO0687 OEC0687 2020-10-24 15:33:31 371 0 50.047664079827 8.5665802876961
OEO0687 OEC0687 2020-10-24 15:33:16 371 0 50.047664079728 8.5665802876961
OEO0687 OEC0687 2020-10-24 15:33:01 371 0 50.047664079735 8.5665802876961
OEO0687 OEC0687 2020-10-24 15:32:46 371 0 50.04766407973 8.5665802876961
OEO0687 OEC0687 2020-10-24 15:32:31 371 0 50.047664079836 8.5665802876961
OEO0687 OEC0687 2020-10-24 15:32:16 371 0 50.047664079444 8.5665802876961
OEO0687 OEC0687 2020-10-24 15:32:01 371 0 50.047664079531 8.5665802876961
OEO0687 OEC0687 2020-10-24 15:31:46 371 0 50.047664079662 8.5665802876961
OEO0687 OEC0687 2020-10-24 15:31:31 371 0 50.047664090504 8.5665802876961
OEO0687 OEC0687 2020-10-24 15:31:16 371 0 50.047664356421 8.5665805011395
OEO0687 OEC0687 2020-10-24 15:31:01 371 0 50.047646812633 8.5665659069462
OEO0687 OEC0687 2020-10-24 15:30:46 371 1 50.047530880506 8.5664771411674
OEO0687 OEC0687 2020-10-24 15:30:31 371 1 50.047385902968 8.5664299168126
OEO0687 OEC0687 2020-10-24 15:30:16 371 1 50.047238589108 8.5664472857702
OEO0687 OEC0687 2020-10-24 15:30:01 371 1 50.047100824787 8.5665264465955
OEO0687 OEC0687 2020-10-24 15:29:46 371 1 50.046980528024 8.5666647846066
OEO0687 OEC0687 2020-10-24 15:29:31 371 1 50.046892293531 8.5668509873028
OEO0687 OEC0687 2020-10-24 15:29:16 371 0 50.046872727023 8.5669208633396
OEO0687 OEC0687 2020-10-24 15:29:01 371 0 50.046872682143 8.5669210234222
OEO0687 OEC0687 2020-10-24 15:28:46 371 0 50.046872624893 8.5669212101852
OEO0687 OEC0687 2020-10-24 15:28:31 371 0 50.046872623038 8.5669212101852
OEO0687 OEC0687 2020-10-24 15:28:16 371 0 50.04687262737 8.5669212101852
OEO0687 OEC0687 2020-10-24 15:28:01 371 0 50.046872625668 8.5669212101852
OEO0687 OEC0687 2020-10-24 15:27:46 371 0 50.046872627288 8.5669212101852
OEO0687 OEC0687 2020-10-24 15:27:31 371 0 50.046872622955 8.5669212101852
OEO0687 OEC0687 2020-10-24 15:27:16 371 0 50.046872625283 8.5669212101852
OEO0687 OEC0687 2020-10-24 15:27:01 371 0 50.046872624498 8.5669212101852
OEO0687 OEC0687 2020-10-24 15:26:46 371 0 50.046872626921 8.5669212101852
OEO0687 OEC0687 2020-10-24 15:26:31 371 0 50.04687262309 8.5669212101852
OEO0687 OEC0687 2020-10-24 15:26:16 371 0 50.046872625511 8.5669212101852
OEO0687 OEC0687 2020-10-24 15:26:01 371 0 50.046872624474 8.5669212101852
OEO0687 OEC0687 2020-10-24 15:25:46 371 0 50.046872622838 8.5669212101852
OEO0687 OEC0687 2020-10-24 15:25:31 371 0 50.046872626747 8.5669212101852
OEO0687 OEC0687 2020-10-24 15:25:16 371 0 50.046872623607 8.5669212101852
OEO0687 OEC0687 2020-10-24 15:25:01 371 0 50.046872626648 8.5669212101852
OEO0687 OEC0687 2020-10-24 15:24:46 371 0 50.046872626561 8.5669212101852
OEO0687 OEC0687 2020-10-24 15:24:31 371 0 50.04687262808 8.5669212101852
OEO0687 OEC0687 2020-10-24 15:24:16 371 0 50.046872623298 8.5669212101852
OEO0687 OEC0687 2020-10-24 15:24:01 371 0 50.046872626588 8.5669212101852
OEO0687 OEC0687 2020-10-24 15:23:46 371 0 50.046872623518 8.5669212101852
OEO0687 OEC0687 2020-10-24 15:23:31 371 0 50.046872623275 8.5669212101852
OEO0687 OEC0687 2020-10-24 15:23:16 371 0 50.046872626431 8.5669212101852
OEO0687 OEC0687 2020-10-24 15:23:01 371 0 50.046872623553 8.5669212101852
OEO0687 OEC0687 2020-10-24 15:22:46 371 0 50.046872626105 8.5669212101852
OEO0687 OEC0687 2020-10-24 15:22:31 371 0 50.046872625355 8.5669212101852
OEO0687 OEC0687 2020-10-24 15:22:16 371 0 50.046872625538 8.5669212101852
OEO0687 OEC0687 2020-10-24 15:22:01 371 0 50.046872626264 8.5669212101852
OEO0687 OEC0687 2020-10-24 15:21:46 371 0 50.046872623094 8.5669212101852
OEO0687 OEC0687 2020-10-24 15:21:31 371 0 50.0468726179 8.5669212101852
OEO0687 OEC0687 2020-10-24 15:21:16 371 0 50.046872617701 8.5669212101852
OEO0687 OEC0687 2020-10-24 15:21:01 371 0 50.046872618979 8.5669212101852
OEO0687 OEC0687 2020-10-24 15:20:46 371 0 50.046872616563 8.5669212101852
OEO0687 OEC0687 2020-10-24 15:20:31 371 0 50.046872614682 8.5669212101852
OEO0687 OEC0687 2020-10-24 15:20:16 371 0 50.046872617431 8.5669212101852
OEO0687 OEC0687 2020-10-24 15:20:01 371 0 50.046872618552 8.5669212101852
OEO0687 OEC0687 2020-10-24 15:19:46 371 0 50.046872614525 8.5669212101852
OEO0687 OEC0687 2020-10-24 15:19:31 371 0 50.046872617789 8.5669212101852
OEO0687 OEC0687 2020-10-24 15:19:16 371 0 50.046872616674 8.5669212101852
OEO0687 OEC0687 2020-10-24 15:19:01 371 0 50.046872619774 8.5669212101852
OEO0687 OEC0687 2020-10-24 15:18:46 371 0 50.046872615248 8.5669212101852
OEO0687 OEC0687 2020-10-24 15:18:31 371 0 50.046872619317 8.5669212101852
OEO0687 OEC0687 2020-10-24 15:18:16 371 0 50.04687261933 8.5669212101852
OEO0687 OEC0687 2020-10-24 15:18:01 371 0 50.046872617769 8.5669212101852
OEO0687 OEC0687 2020-10-24 15:17:46 371 0 50.04687261971 8.5669212101852
OEO0687 OEC0687 2020-10-24 15:17:31 371 0 50.046872616712 8.5669212101852
OEO0687 OEC0687 2020-10-24 15:17:16 371 0 50.046872617498 8.5669212101852
OEO0687 OEC0687 2020-10-24 15:17:01 371 0 50.046872615958 8.5669212101852
OEO0687 OEC0687 2020-10-24 15:16:46 371 0 50.04687261861 8.5669212101852
OEO0687 OEC0687 2020-10-24 15:16:31 371 0 50.046872618938 8.5669212101852
OEO0687 OEC0687 2020-10-24 15:16:16 371 0 50.046872617741 8.5669212101852
OEO0687 OEC0687 2020-10-24 15:16:01 371 0 50.0468726166 8.5669212101852
OEO0687 OEC0687 2020-10-24 15:15:46 371 0 50.046872618322 8.5669212101852
OEO0687 OEC0687 2020-10-24 15:15:31 371 0 50.046872617987 8.5669212101852
OEO0687 OEC0687 2020-10-24 15:15:16 371 0 50.046872619091 8.5669212101852
OEO0687 OEC0687 2020-10-24 15:15:01 371 0 50.046872616383 8.5669212101852
OEO0687 OEC0687 2020-10-24 15:14:46 371 0 50.046872616564 8.5669212101852
OEO0687 OEC0687 2020-10-24 15:14:31 371 0 50.046872617768 8.5669212101852
OEO0687 OEC0687 2020-10-24 15:14:16 371 0 50.046872616225 8.5669212101852
OEO0687 OEC0687 2020-10-24 15:14:01 371 0 50.046872615275 8.5669212101852